Sanko Independence — A8QJ9 — position and weather

sailwx.info

Track history (hours):
 
Tides and Currents Weather Stations Pressure Air Temp Water Temp Dewpoint Dewpoint Depression Visibility Wind Speed Wind Dir Waves Ship Positions

Sanko Independence

Last reported at 2016-Jul-30 01:19 UTC. Time now 2016-Jul-30 05:22 UTC.
Position N 33°27' W 008°30'.

Length 174 m; draft 10.5 m.

Type: Ship (hazmat cat C). MMSI: 636013946.

Date/timePositionNaut miles runAvg speedWind from/ knotsBaromVisibWave heightAir tempDewpointWater temp
2016-Jul-30 01:19N 33°27' W 008°30'1716.0
2016-Jul-30 00:15N 33°39' W 008°16'1815.9
2016-Jul-29 23:08N 33°53' W 008°02'17615.2
2016-Jul-29 11:33N 35°59' W 005°32'1414.5
2016-Jul-29 10:33N 36°02' W 005°15'18915.6
2016-Jul-28 22:24N 36°26' W 001°22'1816.2
2016-Jul-28 21:19N 36°30' W 001°01'1215.9
2016-Jul-28 20:33N 36°32' W 000°46'1615.8
2016-Jul-28 19:33N 36°36' W 000°27'1615.7
2016-Jul-28 18:33N 36°38' W 000°08'1515.4
2016-Jul-28 17:33N 36°42' E 000°11'1616.1
2016-Jul-28 16:33N 36°46' E 000°31'2216.4
2016-Jul-28 15:12N 36°50' E 000°58'1115.9
2016-Jul-28 14:32N 36°52' E 001°11'1616.1
2016-Jul-28 13:31N 36°55' E 001°31'1515.7
2016-Jul-28 12:33N 36°58' E 001°50'1615.8
2016-Jul-28 11:33N 37°02' E 002°09'1716.4
2016-Jul-28 10:33N 37°05' E 002°29'1615.9
2016-Jul-28 09:34N 37°09' E 002°48'1615.8
2016-Jul-28 08:33N 37°11' E 003°08'1515.3
2016-Jul-28 07:33N 37°14' E 003°27'1515.3
2016-Jul-28 06:33N 37°18' E 003°45'1615.9
2016-Jul-28 05:31N 37°18' E 004°06'1515.6
2016-Jul-28 04:33N 37°18' E 004°25'1616.3
2016-Jul-28 03:33N 37°18' E 004°45'1615.7
2016-Jul-28 02:33N 37°19' E 005°05'1615.7
2016-Jul-28 01:33N 37°18' E 005°25'1615.9
2016-Jul-28 00:33N 37°18' E 005°45'1615.9
2016-Jul-27 23:33N 37°18' E 006°05'1615.9
2016-Jul-27 22:33N 37°18' E 006°25'1615.8
2016-Jul-27 21:33N 37°18' E 006°45'1615.5
2016-Jul-27 20:32N 37°19' E 007°05'1916.1
2016-Jul-27 19:23N 37°18' E 007°28'1615.9
2016-Jul-27 18:23N 37°18' E 007°48'2915.8
2016-Jul-27 16:32N 37°18' E 008°25'1515.1
2016-Jul-27 15:34N 37°19' E 008°43'15014.3
2016-Jul-27 05:04N 37°10' E 011°52'815.5
2016-Jul-27 04:33N 37°06' E 012°01'1615.6
2016-Jul-27 03:33N 37°01' E 012°19'3115.5
2016-Jul-27 01:33N 36°50' E 012°56'1515.0
2016-Jul-27 00:33N 36°45' E 013°13'1515.0
2016-Jul-26 23:33N 36°40' E 013°31'1515.0
2016-Jul-26 22:34N 36°35' E 013°48'1515.0
2016-Jul-26 21:32N 36°30' E 014°06'1515.5
2016-Jul-26 20:34N 36°25' E 014°24'1615.5
2016-Jul-26 19:34N 36°21' E 014°43'42415.1
2016-Jul-25 15:26N 36°30' E 023°30'1415.6
2016-Jul-25 14:32N 36°41' E 023°40'1615.8
2016-Jul-25 13:33N 36°55' E 023°51'2216.8
2016-Jul-25 12:16N 37°13' E 024°05'3216.7
2016-Jul-25 10:20N 37°39' E 024°29'1516.5
2016-Jul-25 09:25N 37°54' E 024°34'3616.3
2016-Jul-25 07:15N 38°25' E 024°54'11215.9
2016-Jul-25 00:13N 40°01' E 026°07'  
2016-Jul-22 04:32N 46°20' E 030°55'1313.3
2016-Jul-22 03:33N 46°33' E 030°59'5 1.5
2016-Jul-22 00:26N 46°37' E 031°01'0 0.0
2016-Jul-21 23:32N 46°37' E 031°01'0 0.0
2016-Jul-21 22:32N 46°37' E 031°01'0 0.0
2016-Jul-21 21:32N 46°37' E 031°01'0 0.0
2016-Jul-21 20:32N 46°37' E 031°01'0 0.0
2016-Jul-21 19:32N 46°37' E 031°01'0 0.0
2016-Jul-21 18:32N 46°37' E 031°01'5 0.3
2016-Jul-21 01:29N 46°33' E 030°59'2 0.8
2016-Jul-20 23:15N 46°31' E 030°59'0 0.0
2016-Jul-20 22:33N 46°31' E 030°59'0 0.0
2016-Jul-20 21:33N 46°31' E 030°59'0 0.0
2016-Jul-20 20:33N 46°31' E 030°59'0 0.0
2016-Jul-20 19:33N 46°31' E 030°59'0 0.0
2016-Jul-20 18:33N 46°31' E 030°59'0 0.0
2016-Jul-20 17:33N 46°31' E 030°59'0 0.0
2016-Jul-20 16:33N 46°31' E 030°59'0 0.0
2016-Jul-20 15:33N 46°31' E 030°59'0 0.0
2016-Jul-20 14:33N 46°31' E 030°59'0 0.0
2016-Jul-20 13:33N 46°31' E 030°59'0 0.0
2016-Jul-20 12:33N 46°31' E 030°59'0 0.0
2016-Jul-20 11:33N 46°31' E 030°59'2 1.8
2016-Jul-20 10:33N 46°29' E 030°58'1514.9
2016-Jul-20 09:34N 46°15' E 031°01'1615.5
2016-Jul-20 08:34N 46°00' E 031°10'  
Track history (hours):
 
Tides and Currents Weather Stations Pressure Air Temp Water Temp Dewpoint Dewpoint Depression Visibility Wind Speed Wind Dir Waves Ship Positions

Sanko Independence

Last reported at 2016-Jul-30 01:19 UTC. Time now 2016-Jul-30 05:22 UTC.
Position N 33°27' W 008°30'.

Length 174 m; draft 10.5 m.

Type: Ship (hazmat cat C). MMSI: 636013946.

Date/timePositionNaut miles runAvg speedWind from/ knotsBaromVisibWave heightAir tempDewpointWater temp
2016-Jul-30 01:19N 33°27' W 008°30'1716.0
2016-Jul-30 00:15N 33°39' W 008°16'1815.9
2016-Jul-29 23:08N 33°53' W 008°02'17615.2
2016-Jul-29 11:33N 35°59' W 005°32'1414.5
2016-Jul-29 10:33N 36°02' W 005°15'18915.6
2016-Jul-28 22:24N 36°26' W 001°22'1816.2
2016-Jul-28 21:19N 36°30' W 001°01'1215.9
2016-Jul-28 20:33N 36°32' W 000°46'1615.8
2016-Jul-28 19:33N 36°36' W 000°27'1615.7
2016-Jul-28 18:33N 36°38' W 000°08'1515.4
2016-Jul-28 17:33N 36°42' E 000°11'1616.1
2016-Jul-28 16:33N 36°46' E 000°31'2216.4
2016-Jul-28 15:12N 36°50' E 000°58'1115.9
2016-Jul-28 14:32N 36°52' E 001°11'1616.1
2016-Jul-28 13:31N 36°55' E 001°31'1515.7
2016-Jul-28 12:33N 36°58' E 001°50'1615.8
2016-Jul-28 11:33N 37°02' E 002°09'1716.4
2016-Jul-28 10:33N 37°05' E 002°29'1615.9
2016-Jul-28 09:34N 37°09' E 002°48'1615.8
2016-Jul-28 08:33N 37°11' E 003°08'1515.3
2016-Jul-28 07:33N 37°14' E 003°27'1515.3
2016-Jul-28 06:33N 37°18' E 003°45'1615.9
2016-Jul-28 05:31N 37°18' E 004°06'1515.6
2016-Jul-28 04:33N 37°18' E 004°25'1616.3
2016-Jul-28 03:33N 37°18' E 004°45'1615.7
2016-Jul-28 02:33N 37°19' E 005°05'1615.7
2016-Jul-28 01:33N 37°18' E 005°25'1615.9
2016-Jul-28 00:33N 37°18' E 005°45'1615.9
2016-Jul-27 23:33N 37°18' E 006°05'1615.9
2016-Jul-27 22:33N 37°18' E 006°25'1615.8
2016-Jul-27 21:33N 37°18' E 006°45'1615.5
2016-Jul-27 20:32N 37°19' E 007°05'1916.1
2016-Jul-27 19:23N 37°18' E 007°28'1615.9
2016-Jul-27 18:23N 37°18' E 007°48'2915.8
2016-Jul-27 16:32N 37°18' E 008°25'1515.1
2016-Jul-27 15:34N 37°19' E 008°43'15014.3
2016-Jul-27 05:04N 37°10' E 011°52'815.5
2016-Jul-27 04:33N 37°06' E 012°01'1615.6
2016-Jul-27 03:33N 37°01' E 012°19'3115.5
2016-Jul-27 01:33N 36°50' E 012°56'1515.0
2016-Jul-27 00:33N 36°45' E 013°13'1515.0
2016-Jul-26 23:33N 36°40' E 013°31'1515.0
2016-Jul-26 22:34N 36°35' E 013°48'1515.0
2016-Jul-26 21:32N 36°30' E 014°06'1515.5
2016-Jul-26 20:34N 36°25' E 014°24'1615.5
2016-Jul-26 19:34N 36°21' E 014°43'42415.1
2016-Jul-25 15:26N 36°30' E 023°30'1415.6
2016-Jul-25 14:32N 36°41' E 023°40'1615.8
2016-Jul-25 13:33N 36°55' E 023°51'2216.8
2016-Jul-25 12:16N 37°13' E 024°05'3216.7
2016-Jul-25 10:20N 37°39' E 024°29'1516.5
2016-Jul-25 09:25N 37°54' E 024°34'3616.3
2016-Jul-25 07:15N 38°25' E 024°54'11215.9
2016-Jul-25 00:13N 40°01' E 026°07'  
2016-Jul-22 04:32N 46°20' E 030°55'1313.3
2016-Jul-22 03:33N 46°33' E 030°59'5 1.5
2016-Jul-22 00:26N 46°37' E 031°01'0 0.0
2016-Jul-21 23:32N 46°37' E 031°01'0 0.0
2016-Jul-21 22:32N 46°37' E 031°01'0 0.0
2016-Jul-21 21:32N 46°37' E 031°01'0 0.0
2016-Jul-21 20:32N 46°37' E 031°01'0 0.0
2016-Jul-21 19:32N 46°37' E 031°01'0 0.0
2016-Jul-21 18:32N 46°37' E 031°01'5 0.3
2016-Jul-21 01:29N 46°33' E 030°59'2 0.8
2016-Jul-20 23:15N 46°31' E 030°59'0 0.0
2016-Jul-20 22:33N 46°31' E 030°59'0 0.0
2016-Jul-20 21:33N 46°31' E 030°59'0 0.0
2016-Jul-20 20:33N 46°31' E 030°59'0 0.0
2016-Jul-20 19:33N 46°31' E 030°59'0 0.0
2016-Jul-20 18:33N 46°31' E 030°59'0 0.0
2016-Jul-20 17:33N 46°31' E 030°59'0 0.0
2016-Jul-20 16:33N 46°31' E 030°59'0 0.0
2016-Jul-20 15:33N 46°31' E 030°59'0 0.0
2016-Jul-20 14:33N 46°31' E 030°59'0 0.0
2016-Jul-20 13:33N 46°31' E 030°59'0 0.0
2016-Jul-20 12:33N 46°31' E 030°59'0 0.0
2016-Jul-20 11:33N 46°31' E 030°59'2 1.8
2016-Jul-20 10:33N 46°29' E 030°58'1514.9
2016-Jul-20 09:34N 46°15' E 031°01'1615.5
2016-Jul-20 08:34N 46°00' E 031°10'  

Dump ship's entire track history